sensor_id;sensor_type;location;lat;lon;timestamp;temperature;humidity
26479;DHT22;14163;-26.142;27.992;2024-01-10T00:01:09;23.30;99.90
26479;DHT22;14163;-26.142;27.992;2024-01-10T00:03:38;23.30;99.90
26479;DHT22;14163;-26.142;27.992;2024-01-10T00:06:08;23.30;99.90
26479;DHT22;14163;-26.142;27.992;2024-01-10T00:08:41;23.30;99.90
26479;DHT22;14163;-26.142;27.992;2024-01-10T00:11:10;23.30;99.90
26479;DHT22;14163;-26.142;27.992;2024-01-10T00:13:39;23.40;99.90
26479;DHT22;14163;-26.142;27.992;2024-01-10T00:16:08;23.40;99.90
26479;DHT22;14163;-26.142;27.992;2024-01-10T00:18:37;23.50;99.90
26479;DHT22;14163;-26.142;27.992;2024-01-10T00:21:10;23.50;99.90
26479;DHT22;14163;-26.142;27.992;2024-01-10T00:23:39;23.40;99.90
26479;DHT22;14163;-26.142;27.992;2024-01-10T00:26:08;23.30;99.90
26479;DHT22;14163;-26.142;27.992;2024-01-10T00:28:37;23.30;99.90
26479;DHT22;14163;-26.142;27.992;2024-01-10T00:31:06;23.20;99.90
26479;DHT22;14163;-26.142;27.992;2024-01-10T00:33:34;23.20;99.90
26479;DHT22;14163;-26.142;27.992;2024-01-10T00:36:04;23.30;99.90
26479;DHT22;14163;-26.142;27.992;2024-01-10T00:38:36;23.30;99.90
26479;DHT22;14163;-26.142;27.992;2024-01-10T00:41:05;23.20;99.90
26479;DHT22;14163;-26.142;27.992;2024-01-10T00:43:34;23.20;99.90
26479;DHT22;14163;-26.142;27.992;2024-01-10T00:46:03;23.30;99.90
26479;DHT22;14163;-26.142;27.992;2024-01-10T00:48:32;23.20;99.90
26479;DHT22;14163;-26.142;27.992;2024-01-10T00:51:01;23.20;99.90
26479;DHT22;14163;-26.142;27.992;2024-01-10T00:53:36;23.20;99.90
26479;DHT22;14163;-26.142;27.992;2024-01-10T00:56:07;23.20;99.90
26479;DHT22;14163;-26.142;27.992;2024-01-10T00:58:36;23.20;99.90
26479;DHT22;14163;-26.142;27.992;2024-01-10T01:01:05;23.30;99.90
26479;DHT22;14163;-26.142;27.992;2024-01-10T01:03:34;23.30;99.90
26479;DHT22;14163;-26.142;27.992;2024-01-10T01:06:03;23.30;99.90
26479;DHT22;14163;-26.142;27.992;2024-01-10T01:08:32;23.30;99.90
26479;DHT22;14163;-26.142;27.992;2024-01-10T01:11:03;23.30;99.90
26479;DHT22;14163;-26.142;27.992;2024-01-10T01:13:32;23.30;99.90
26479;DHT22;14163;-26.142;27.992;2024-01-10T01:16:01;23.30;99.90
26479;DHT22;14163;-26.142;27.992;2024-01-10T01:18:29;23.20;99.90
26479;DHT22;14163;-26.142;27.992;2024-01-10T01:20:59;23.10;99.90
26479;DHT22;14163;-26.142;27.992;2024-01-10T01:23:28;22.90;99.90
26479;DHT22;14163;-26.142;27.992;2024-01-10T01:25:57;22.80;99.90
26479;DHT22;14163;-26.142;27.992;2024-01-10T01:28:29;23.00;99.90
26479;DHT22;14163;-26.142;27.992;2024-01-10T01:30:58;23.10;99.90
26479;DHT22;14163;-26.142;27.992;2024-01-10T01:33:27;23.00;99.90
26479;DHT22;14163;-26.142;27.992;2024-01-10T01:35:56;22.80;99.90
26479;DHT22;14163;-26.142;27.992;2024-01-10T01:38:25;22.70;99.90
26479;DHT22;14163;-26.142;27.992;2024-01-10T01:40:54;22.60;99.90
26479;DHT22;14163;-26.142;27.992;2024-01-10T01:43:24;22.50;99.90
26479;DHT22;14163;-26.142;27.992;2024-01-10T01:45:56;22.30;99.90
26479;DHT22;14163;-26.142;27.992;2024-01-10T01:48:25;22.30;99.90
26479;DHT22;14163;-26.142;27.992;2024-01-10T01:50:56;22.40;99.90
26479;DHT22;14163;-26.142;27.992;2024-01-10T01:53:28;22.30;99.90
26479;DHT22;14163;-26.142;27.992;2024-01-10T01:55:59;22.40;99.90
26479;DHT22;14163;-26.142;27.992;2024-01-10T01:58:30;22.20;99.90
26479;DHT22;14163;-26.142;27.992;2024-01-10T02:01:02;22.10;99.90
26479;DHT22;14163;-26.142;27.992;2024-01-10T02:03:32;22.10;99.90
26479;DHT22;14163;-26.142;27.992;2024-01-10T02:06:02;22.10;99.90
26479;DHT22;14163;-26.142;27.992;2024-01-10T02:08:32;22.00;99.90
26479;DHT22;14163;-26.142;27.992;2024-01-10T02:11:03;21.90;99.90
26479;DHT22;14163;-26.142;27.992;2024-01-10T02:13:32;22.00;99.90
26479;DHT22;14163;-26.142;27.992;2024-01-10T02:16:07;22.00;99.90
26479;DHT22;14163;-26.142;27.992;2024-01-10T02:18:36;21.90;99.90
26479;DHT22;14163;-26.142;27.992;2024-01-10T02:21:09;21.90;99.90
26479;DHT22;14163;-26.142;27.992;2024-01-10T02:23:38;21.90;99.90
26479;DHT22;14163;-26.142;27.992;2024-01-10T02:26:08;21.90;99.90
26479;DHT22;14163;-26.142;27.992;2024-01-10T02:28:38;22.00;99.90
26479;DHT22;14163;-26.142;27.992;2024-01-10T02:31:10;22.00;99.90
26479;DHT22;14163;-26.142;27.992;2024-01-10T02:33:39;22.10;99.90
26479;DHT22;14163;-26.142;27.992;2024-01-10T02:36:12;22.20;99.90
26479;DHT22;14163;-26.142;27.992;2024-01-10T02:38:41;22.20;99.90
26479;DHT22;14163;-26.142;27.992;2024-01-10T02:41:15;22.30;99.90
26479;DHT22;14163;-26.142;27.992;2024-01-10T02:43:45;22.30;99.90
26479;DHT22;14163;-26.142;27.992;2024-01-10T02:46:14;22.30;99.90
26479;DHT22;14163;-26.142;27.992;2024-01-10T02:48:43;22.20;99.90
26479;DHT22;14163;-26.142;27.992;2024-01-10T02:51:12;22.30;99.90
26479;DHT22;14163;-26.142;27.992;2024-01-10T02:53:41;22.30;99.90
26479;DHT22;14163;-26.142;27.992;2024-01-10T02:56:11;22.20;99.90
26479;DHT22;14163;-26.142;27.992;2024-01-10T02:58:40;22.20;99.90
26479;DHT22;14163;-26.142;27.992;2024-01-10T03:01:11;22.20;99.90
26479;DHT22;14163;-26.142;27.992;2024-01-10T03:03:42;22.10;99.90
26479;DHT22;14163;-26.142;27.992;2024-01-10T03:06:11;22.10;99.90
26479;DHT22;14163;-26.142;27.992;2024-01-10T03:08:38;22.20;99.90
26479;DHT22;14163;-26.142;27.992;2024-01-10T03:11:07;22.00;99.90
26479;DHT22;14163;-26.142;27.992;2024-01-10T03:13:38;22.00;99.90
26479;DHT22;14163;-26.142;27.992;2024-01-10T03:16:07;21.90;99.90
26479;DHT22;14163;-26.142;27.992;2024-01-10T03:18:36;22.00;99.90
26479;DHT22;14163;-26.142;27.992;2024-01-10T03:21:05;21.90;99.90
26479;DHT22;14163;-26.142;27.992;2024-01-10T03:23:34;21.80;99.90
26479;DHT22;14163;-26.142;27.992;2024-01-10T03:26:03;21.80;99.90
26479;DHT22;14163;-26.142;27.992;2024-01-10T03:28:32;21.80;99.90
26479;DHT22;14163;-26.142;27.992;2024-01-10T03:31:02;21.90;99.90
26479;DHT22;14163;-26.142;27.992;2024-01-10T03:33:31;22.00;99.90
26479;DHT22;14163;-26.142;27.992;2024-01-10T03:36:01;22.00;99.90
26479;DHT22;14163;-26.142;27.992;2024-01-10T03:38:30;22.00;99.90
26479;DHT22;14163;-26.142;27.992;2024-01-10T03:40:58;22.30;99.90
26479;DHT22;14163;-26.142;27.992;2024-01-10T03:43:27;22.40;99.90
26479;DHT22;14163;-26.142;27.992;2024-01-10T03:45:56;22.50;99.90
26479;DHT22;14163;-26.142;27.992;2024-01-10T03:48:27;22.60;99.90
26479;DHT22;14163;-26.142;27.992;2024-01-10T03:50:56;22.40;99.90
26479;DHT22;14163;-26.142;27.992;2024-01-10T03:53:25;22.20;99.90
26479;DHT22;14163;-26.142;27.992;2024-01-10T03:55:53;22.10;99.90
26479;DHT22;14163;-26.142;27.992;2024-01-10T03:58:23;22.00;99.90
26479;DHT22;14163;-26.142;27.992;2024-01-10T04:00:53;21.90;99.90
26479;DHT22;14163;-26.142;27.992;2024-01-10T04:03:22;21.90;99.90
26479;DHT22;14163;-26.142;27.992;2024-01-10T04:05:52;21.90;99.90
26479;DHT22;14163;-26.142;27.992;2024-01-10T04:08:21;21.90;99.90
26479;DHT22;14163;-26.142;27.992;2024-01-10T04:10:50;22.00;99.90
26479;DHT22;14163;-26.142;27.992;2024-01-10T04:13:19;21.80;99.90
26479;DHT22;14163;-26.142;27.992;2024-01-10T04:15:48;21.90;99.90
26479;DHT22;14163;-26.142;27.992;2024-01-10T04:18:17;21.90;99.90
26479;DHT22;14163;-26.142;27.992;2024-01-10T04:20:46;21.90;99.90
26479;DHT22;14163;-26.142;27.992;2024-01-10T04:23:17;22.00;99.90
26479;DHT22;14163;-26.142;27.992;2024-01-10T04:25:46;22.20;99.90
26479;DHT22;14163;-26.142;27.992;2024-01-10T04:28:14;22.40;99.90
26479;DHT22;14163;-26.142;27.992;2024-01-10T04:30:43;22.60;99.90
26479;DHT22;14163;-26.142;27.992;2024-01-10T04:33:12;22.70;99.90
26479;DHT22;14163;-26.142;27.992;2024-01-10T04:35:41;22.90;99.90
26479;DHT22;14163;-26.142;27.992;2024-01-10T04:38:10;23.00;99.90
26479;DHT22;14163;-26.142;27.992;2024-01-10T04:40:41;23.00;99.90
26479;DHT22;14163;-26.142;27.992;2024-01-10T04:43:10;23.00;99.90
26479;DHT22;14163;-26.142;27.992;2024-01-10T04:45:39;22.80;99.90
26479;DHT22;14163;-26.142;27.992;2024-01-10T04:48:08;22.70;99.90
26479;DHT22;14163;-26.142;27.992;2024-01-10T04:50:37;22.60;99.90
26479;DHT22;14163;-26.142;27.992;2024-01-10T04:53:06;22.30;99.90
26479;DHT22;14163;-26.142;27.992;2024-01-10T04:55:35;22.00;99.90
26479;DHT22;14163;-26.142;27.992;2024-01-10T04:58:05;22.00;99.90
26479;DHT22;14163;-26.142;27.992;2024-01-10T05:00:34;22.00;99.90
26479;DHT22;14163;-26.142;27.992;2024-01-10T05:03:04;22.00;99.90
26479;DHT22;14163;-26.142;27.992;2024-01-10T05:05:33;22.00;99.90
26479;DHT22;14163;-26.142;27.992;2024-01-10T05:08:02;22.10;99.90
26479;DHT22;14163;-26.142;27.992;2024-01-10T05:10:31;22.10;99.90
26479;DHT22;14163;-26.142;27.992;2024-01-10T05:12:59;22.30;99.90
26479;DHT22;14163;-26.142;27.992;2024-01-10T05:15:31;22.60;99.90
26479;DHT22;14163;-26.142;27.992;2024-01-10T05:18:13;22.50;99.90
26479;DHT22;14163;-26.142;27.992;2024-01-10T05:21:01;22.60;99.90
26479;DHT22;14163;-26.142;27.992;2024-01-10T05:23:31;22.30;99.90
26479;DHT22;14163;-26.142;27.992;2024-01-10T05:26:01;22.40;99.90
26479;DHT22;14163;-26.142;27.992;2024-01-10T05:28:37;22.60;99.90
26479;DHT22;14163;-26.142;27.992;2024-01-10T05:31:18;22.80;99.90
26479;DHT22;14163;-26.142;27.992;2024-01-10T05:33:47;23.10;99.90
26479;DHT22;14163;-26.142;27.992;2024-01-10T05:36:16;23.30;99.90
26479;DHT22;14163;-26.142;27.992;2024-01-10T05:38:45;23.20;99.90
26479;DHT22;14163;-26.142;27.992;2024-01-10T05:41:14;23.10;99.90
26479;DHT22;14163;-26.142;27.992;2024-01-10T05:43:43;22.80;99.90
26479;DHT22;14163;-26.142;27.992;2024-01-10T05:46:13;22.50;99.90
26479;DHT22;14163;-26.142;27.992;2024-01-10T05:48:43;22.40;99.90
26479;DHT22;14163;-26.142;27.992;2024-01-10T05:51:13;22.30;99.90
26479;DHT22;14163;-26.142;27.992;2024-01-10T05:53:42;22.10;99.90
26479;DHT22;14163;-26.142;27.992;2024-01-10T05:56:10;22.20;99.90
26479;DHT22;14163;-26.142;27.992;2024-01-10T05:58:39;22.00;99.90
26479;DHT22;14163;-26.142;27.992;2024-01-10T08:03:56;19.90;99.90
26479;DHT22;14163;-26.142;27.992;2024-01-10T08:06:25;19.80;99.90
26479;DHT22;14163;-26.142;27.992;2024-01-10T08:08:54;20.10;99.90
26479;DHT22;14163;-26.142;27.992;2024-01-10T08:11:23;20.50;99.90
26479;DHT22;14163;-26.142;27.992;2024-01-10T08:13:53;20.90;99.90
26479;DHT22;14163;-26.142;27.992;2024-01-10T08:16:22;21.20;99.90
26479;DHT22;14163;-26.142;27.992;2024-01-10T08:18:50;21.50;99.90
26479;DHT22;14163;-26.142;27.992;2024-01-10T08:21:22;21.70;99.90
26479;DHT22;14163;-26.142;27.992;2024-01-10T08:23:51;21.80;99.90
26479;DHT22;14163;-26.142;27.992;2024-01-10T08:26:21;21.90;99.90
26479;DHT22;14163;-26.142;27.992;2024-01-10T08:28:50;22.00;99.90
26479;DHT22;14163;-26.142;27.992;2024-01-10T08:31:20;22.20;99.90
26479;DHT22;14163;-26.142;27.992;2024-01-10T08:33:49;22.40;99.90
26479;DHT22;14163;-26.142;27.992;2024-01-10T08:36:20;22.50;99.90
26479;DHT22;14163;-26.142;27.992;2024-01-10T08:38:50;22.60;99.90
26479;DHT22;14163;-26.142;27.992;2024-01-10T08:41:20;22.70;99.90
26479;DHT22;14163;-26.142;27.992;2024-01-10T08:43:49;22.80;99.90
26479;DHT22;14163;-26.142;27.992;2024-01-10T08:46:18;22.90;99.90
26479;DHT22;14163;-26.142;27.992;2024-01-10T08:48:47;22.90;99.90
26479;DHT22;14163;-26.142;27.992;2024-01-10T08:51:16;23.00;99.90
26479;DHT22;14163;-26.142;27.992;2024-01-10T08:53:47;23.00;99.90
26479;DHT22;14163;-26.142;27.992;2024-01-10T08:56:16;23.10;99.90
26479;DHT22;14163;-26.142;27.992;2024-01-10T08:58:45;23.30;99.90
26479;DHT22;14163;-26.142;27.992;2024-01-10T09:01:14;23.40;99.90
26479;DHT22;14163;-26.142;27.992;2024-01-10T09:03:43;23.50;99.90
26479;DHT22;14163;-26.142;27.992;2024-01-10T09:06:12;23.50;99.90
26479;DHT22;14163;-26.142;27.992;2024-01-10T09:08:41;23.50;99.90
26479;DHT22;14163;-26.142;27.992;2024-01-10T09:11:12;23.60;99.90
26479;DHT22;14163;-26.142;27.992;2024-01-10T09:13:40;23.50;99.90
26479;DHT22;14163;-26.142;27.992;2024-01-10T09:16:09;23.50;99.90
26479;DHT22;14163;-26.142;27.992;2024-01-10T09:18:38;23.60;99.90
26479;DHT22;14163;-26.142;27.992;2024-01-10T09:21:07;23.70;99.90
26479;DHT22;14163;-26.142;27.992;2024-01-10T09:23:36;23.80;99.90
26479;DHT22;14163;-26.142;27.992;2024-01-10T09:26:05;23.90;99.90
26479;DHT22;14163;-26.142;27.992;2024-01-10T09:28:37;24.00;99.90
26479;DHT22;14163;-26.142;27.992;2024-01-10T09:31:06;24.10;99.90
26479;DHT22;14163;-26.142;27.992;2024-01-10T09:33:36;24.10;99.90
26479;DHT22;14163;-26.142;27.992;2024-01-10T09:36:05;24.20;99.90
26479;DHT22;14163;-26.142;27.992;2024-01-10T09:38:35;24.20;99.90
26479;DHT22;14163;-26.142;27.992;2024-01-10T09:41:05;24.30;99.90
26479;DHT22;14163;-26.142;27.992;2024-01-10T09:43:35;24.50;99.90
26479;DHT22;14163;-26.142;27.992;2024-01-10T09:46:07;24.60;99.90
26479;DHT22;14163;-26.142;27.992;2024-01-10T09:48:37;24.70;99.90
26479;DHT22;14163;-26.142;27.992;2024-01-10T09:51:06;24.80;99.90
26479;DHT22;14163;-26.142;27.992;2024-01-10T09:53:36;24.90;99.90
26479;DHT22;14163;-26.142;27.992;2024-01-10T09:56:09;24.90;99.90
26479;DHT22;14163;-26.142;27.992;2024-01-10T09:58:40;25.00;99.90
26479;DHT22;14163;-26.142;27.992;2024-01-10T10:01:11;25.10;99.90
26479;DHT22;14163;-26.142;27.992;2024-01-10T10:03:41;25.20;99.90
26479;DHT22;14163;-26.142;27.992;2024-01-10T10:06:12;25.30;99.90
26479;DHT22;14163;-26.142;27.992;2024-01-10T10:08:41;25.40;99.90
26479;DHT22;14163;-26.142;27.992;2024-01-10T10:11:12;25.40;99.90
26479;DHT22;14163;-26.142;27.992;2024-01-10T10:13:43;25.50;99.90
26479;DHT22;14163;-26.142;27.992;2024-01-10T10:16:12;25.50;99.90
26479;DHT22;14163;-26.142;27.992;2024-01-10T10:18:41;25.60;99.90
26479;DHT22;14163;-26.142;27.992;2024-01-10T10:21:12;25.70;99.90
26479;DHT22;14163;-26.142;27.992;2024-01-10T10:23:43;25.80;99.90
26479;DHT22;14163;-26.142;27.992;2024-01-10T10:26:13;26.00;99.90
26479;DHT22;14163;-26.142;27.992;2024-01-10T10:28:49;26.10;99.90
26479;DHT22;14163;-26.142;27.992;2024-01-10T10:31:18;26.10;99.90
26479;DHT22;14163;-26.142;27.992;2024-01-10T10:33:49;26.30;99.90
26479;DHT22;14163;-26.142;27.992;2024-01-10T10:36:18;26.30;99.90
26479;DHT22;14163;-26.142;27.992;2024-01-10T10:38:47;26.50;99.90
26479;DHT22;14163;-26.142;27.992;2024-01-10T10:41:17;26.50;99.90
26479;DHT22;14163;-26.142;27.992;2024-01-10T10:43:49;26.50;99.90
26479;DHT22;14163;-26.142;27.992;2024-01-10T10:46:19;26.60;99.90
26479;DHT22;14163;-26.142;27.992;2024-01-10T10:48:49;26.50;99.90
26479;DHT22;14163;-26.142;27.992;2024-01-10T10:51:20;26.70;99.90
26479;DHT22;14163;-26.142;27.992;2024-01-10T10:53:54;26.80;99.90
26479;DHT22;14163;-26.142;27.992;2024-01-10T10:56:23;27.00;99.90
26479;DHT22;14163;-26.142;27.992;2024-01-10T10:58:55;27.20;99.90
26479;DHT22;14163;-26.142;27.992;2024-01-10T11:01:25;27.30;99.90
26479;DHT22;14163;-26.142;27.992;2024-01-10T11:03:54;27.30;99.90
26479;DHT22;14163;-26.142;27.992;2024-01-10T11:06:23;27.10;99.90
26479;DHT22;14163;-26.142;27.992;2024-01-10T11:08:54;26.90;99.90
26479;DHT22;14163;-26.142;27.992;2024-01-10T11:11:34;26.80;99.90
26479;DHT22;14163;-26.142;27.992;2024-01-10T11:14:18;26.60;99.90
26479;DHT22;14163;-26.142;27.992;2024-01-10T11:17:11;26.60;99.90
26479;DHT22;14163;-26.142;27.992;2024-01-10T11:20:10;26.50;99.90
26479;DHT22;14163;-26.142;27.992;2024-01-10T11:22:56;26.60;99.90
26479;DHT22;14163;-26.142;27.992;2024-01-10T11:25:28;26.60;99.90
26479;DHT22;14163;-26.142;27.992;2024-01-10T11:28:02;26.60;99.90
26479;DHT22;14163;-26.142;27.992;2024-01-10T11:30:36;26.80;99.90
26479;DHT22;14163;-26.142;27.992;2024-01-10T11:33:23;26.90;99.90
26479;DHT22;14163;-26.142;27.992;2024-01-10T11:36:13;27.10;99.90
26479;DHT22;14163;-26.142;27.992;2024-01-10T11:38:42;27.10;99.90
26479;DHT22;14163;-26.142;27.992;2024-01-10T11:41:12;27.30;99.90
26479;DHT22;14163;-26.142;27.992;2024-01-10T11:43:43;27.50;99.90
26479;DHT22;14163;-26.142;27.992;2024-01-10T11:46:14;27.60;99.90
26479;DHT22;14163;-26.142;27.992;2024-01-10T11:48:45;27.80;99.90
26479;DHT22;14163;-26.142;27.992;2024-01-10T11:51:14;27.90;99.90
26479;DHT22;14163;-26.142;27.992;2024-01-10T11:53:43;28.00;99.90
26479;DHT22;14163;-26.142;27.992;2024-01-10T11:56:14;28.20;99.90
26479;DHT22;14163;-26.142;27.992;2024-01-10T11:58:55;28.20;99.90
26479;DHT22;14163;-26.142;27.992;2024-01-10T12:01:26;28.30;99.90
26479;DHT22;14163;-26.142;27.992;2024-01-10T12:03:56;28.50;99.90
26479;DHT22;14163;-26.142;27.992;2024-01-10T12:06:26;28.70;99.90
26479;DHT22;14163;-26.142;27.992;2024-01-10T12:08:55;28.80;99.90
26479;DHT22;14163;-26.142;27.992;2024-01-10T12:11:24;28.90;99.90
26479;DHT22;14163;-26.142;27.992;2024-01-10T12:13:53;29.00;99.90
26479;DHT22;14163;-26.142;27.992;2024-01-10T12:16:26;29.10;99.90
26479;DHT22;14163;-26.142;27.992;2024-01-10T12:18:56;29.20;99.90
26479;DHT22;14163;-26.142;27.992;2024-01-10T12:21:24;29.20;99.90
26479;DHT22;14163;-26.142;27.992;2024-01-10T12:23:53;29.20;99.90
26479;DHT22;14163;-26.142;27.992;2024-01-10T12:26:22;29.10;99.90
26479;DHT22;14163;-26.142;27.992;2024-01-10T12:28:55;29.10;99.90
26479;DHT22;14163;-26.142;27.992;2024-01-10T12:31:27;28.90;99.90
26479;DHT22;14163;-26.142;27.992;2024-01-10T12:33:56;28.80;99.90
26479;DHT22;14163;-26.142;27.992;2024-01-10T12:36:25;28.60;99.90
26479;DHT22;14163;-26.142;27.992;2024-01-10T12:38:54;28.00;99.90
26479;DHT22;14163;-26.142;27.992;2024-01-10T12:41:24;27.90;99.90
26479;DHT22;14163;-26.142;27.992;2024-01-10T12:43:53;27.70;99.90
26479;DHT22;14163;-26.142;27.992;2024-01-10T12:46:23;27.40;99.90
26479;DHT22;14163;-26.142;27.992;2024-01-10T12:49:01;27.30;99.90
26479;DHT22;14163;-26.142;27.992;2024-01-10T12:51:32;27.30;99.90
26479;DHT22;14163;-26.142;27.992;2024-01-10T12:54:03;27.50;99.90
26479;DHT22;14163;-26.142;27.992;2024-01-10T12:56:32;27.60;99.90
26479;DHT22;14163;-26.142;27.992;2024-01-10T12:59:02;27.50;99.90
26479;DHT22;14163;-26.142;27.992;2024-01-10T13:01:30;27.60;99.90
26479;DHT22;14163;-26.142;27.992;2024-01-10T13:04:01;27.80;99.90
26479;DHT22;14163;-26.142;27.992;2024-01-10T13:06:30;27.80;99.90
26479;DHT22;14163;-26.142;27.992;2024-01-10T13:08:59;27.80;99.90
26479;DHT22;14163;-26.142;27.992;2024-01-10T13:11:28;27.90;99.90
26479;DHT22;14163;-26.142;27.992;2024-01-10T13:13:57;27.90;99.90
26479;DHT22;14163;-26.142;27.992;2024-01-10T13:16:27;28.10;99.90
26479;DHT22;14163;-26.142;27.992;2024-01-10T13:18:56;28.20;99.90
26479;DHT22;14163;-26.142;27.992;2024-01-10T13:21:27;28.10;99.90
26479;DHT22;14163;-26.142;27.992;2024-01-10T13:23:56;28.20;99.90
26479;DHT22;14163;-26.142;27.992;2024-01-10T13:26:25;28.40;99.90
26479;DHT22;14163;-26.142;27.992;2024-01-10T13:28:54;28.60;99.90
26479;DHT22;14163;-26.142;27.992;2024-01-10T13:31:23;28.70;99.90
26479;DHT22;14163;-26.142;27.992;2024-01-10T13:33:52;28.70;99.90
26479;DHT22;14163;-26.142;27.992;2024-01-10T13:36:21;28.70;99.90
26479;DHT22;14163;-26.142;27.992;2024-01-10T13:38:51;28.70;99.90
26479;DHT22;14163;-26.142;27.992;2024-01-10T13:41:20;28.80;99.90
26479;DHT22;14163;-26.142;27.992;2024-01-10T13:43:49;28.70;99.90
26479;DHT22;14163;-26.142;27.992;2024-01-10T13:46:18;28.80;99.90
26479;DHT22;14163;-26.142;27.992;2024-01-10T13:48:47;28.90;99.90
26479;DHT22;14163;-26.142;27.992;2024-01-10T13:51:16;28.60;99.90
26479;DHT22;14163;-26.142;27.992;2024-01-10T13:53:45;28.40;99.90
26479;DHT22;14163;-26.142;27.992;2024-01-10T13:56:16;28.20;99.90
26479;DHT22;14163;-26.142;27.992;2024-01-10T13:58:45;28.10;99.90
26479;DHT22;14163;-26.142;27.992;2024-01-10T14:01:14;28.00;99.90
26479;DHT22;14163;-26.142;27.992;2024-01-10T14:03:43;28.10;99.90
26479;DHT22;14163;-26.142;27.992;2024-01-10T14:06:12;28.10;99.90
26479;DHT22;14163;-26.142;27.992;2024-01-10T14:08:41;28.20;99.90
26479;DHT22;14163;-26.142;27.992;2024-01-10T14:11:12;28.30;99.90
26479;DHT22;14163;-26.142;27.992;2024-01-10T14:13:42;28.40;99.90
26479;DHT22;14163;-26.142;27.992;2024-01-10T14:16:11;28.50;99.90
26479;DHT22;14163;-26.142;27.992;2024-01-10T14:18:40;28.60;99.90
26479;DHT22;14163;-26.142;27.992;2024-01-10T14:21:09;28.60;99.90
26479;DHT22;14163;-26.142;27.992;2024-01-10T14:23:38;28.60;99.90
26479;DHT22;14163;-26.142;27.992;2024-01-10T14:26:07;28.60;99.90
26479;DHT22;14163;-26.142;27.992;2024-01-10T14:28:36;28.70;99.90
26479;DHT22;14163;-26.142;27.992;2024-01-10T14:31:07;28.70;99.90
26479;DHT22;14163;-26.142;27.992;2024-01-10T14:33:36;28.50;99.90
26479;DHT22;14163;-26.142;27.992;2024-01-10T14:36:06;28.40;99.90
26479;DHT22;14163;-26.142;27.992;2024-01-10T14:38:35;28.30;99.90
26479;DHT22;14163;-26.142;27.992;2024-01-10T14:41:05;28.40;99.90
26479;DHT22;14163;-26.142;27.992;2024-01-10T14:46:03;28.60;99.90
26479;DHT22;14163;-26.142;27.992;2024-01-10T14:48:34;28.30;99.90
26479;DHT22;14163;-26.142;27.992;2024-01-10T14:51:04;27.90;99.90
26479;DHT22;14163;-26.142;27.992;2024-01-10T14:53:33;27.80;99.90
26479;DHT22;14163;-26.142;27.992;2024-01-10T14:56:03;27.80;99.90
26479;DHT22;14163;-26.142;27.992;2024-01-10T14:58:32;27.80;99.90
26479;DHT22;14163;-26.142;27.992;2024-01-10T15:01:01;27.90;99.90
26479;DHT22;14163;-26.142;27.992;2024-01-10T15:03:30;27.80;99.90
26479;DHT22;14163;-26.142;27.992;2024-01-10T15:06:00;27.90;99.90
26479;DHT22;14163;-26.142;27.992;2024-01-10T15:08:29;27.70;99.90
26479;DHT22;14163;-26.142;27.992;2024-01-10T15:10:59;27.60;99.90
26479;DHT22;14163;-26.142;27.992;2024-01-10T15:13:27;27.50;99.90
26479;DHT22;14163;-26.142;27.992;2024-01-10T15:15:56;27.60;99.90
26479;DHT22;14163;-26.142;27.992;2024-01-10T15:18:25;27.50;99.90
26479;DHT22;14163;-26.142;27.992;2024-01-10T15:20:54;27.50;99.90
26479;DHT22;14163;-26.142;27.992;2024-01-10T15:23:25;27.40;99.90
26479;DHT22;14163;-26.142;27.992;2024-01-10T15:25:54;27.50;99.90
26479;DHT22;14163;-26.142;27.992;2024-01-10T15:28:23;27.50;99.90
26479;DHT22;14163;-26.142;27.992;2024-01-10T15:30:52;27.50;99.90
26479;DHT22;14163;-26.142;27.992;2024-01-10T15:33:21;27.60;99.90
26479;DHT22;14163;-26.142;27.992;2024-01-10T15:35:49;27.60;99.90
26479;DHT22;14163;-26.142;27.992;2024-01-10T15:38:19;27.60;99.90
26479;DHT22;14163;-26.142;27.992;2024-01-10T15:40:50;27.80;99.90
26479;DHT22;14163;-26.142;27.992;2024-01-10T15:43:20;27.90;99.90
26479;DHT22;14163;-26.142;27.992;2024-01-10T15:45:49;28.00;99.90
26479;DHT22;14163;-26.142;27.992;2024-01-10T15:48:18;28.00;99.90
26479;DHT22;14163;-26.142;27.992;2024-01-10T15:50:47;28.10;99.90
26479;DHT22;14163;-26.142;27.992;2024-01-10T15:53:16;28.00;99.90
26479;DHT22;14163;-26.142;27.992;2024-01-10T15:55:45;28.10;99.90
26479;DHT22;14163;-26.142;27.992;2024-01-10T15:58:18;28.20;99.90
26479;DHT22;14163;-26.142;27.992;2024-01-10T16:00:47;28.20;99.90
26479;DHT22;14163;-26.142;27.992;2024-01-10T16:03:16;28.00;99.90
26479;DHT22;14163;-26.142;27.992;2024-01-10T16:05:45;27.90;99.90
26479;DHT22;14163;-26.142;27.992;2024-01-10T16:08:16;27.80;99.90
26479;DHT22;14163;-26.142;27.992;2024-01-10T16:10:44;27.80;99.90
26479;DHT22;14163;-26.142;27.992;2024-01-10T16:13:13;27.70;99.90
26479;DHT22;14163;-26.142;27.992;2024-01-10T16:15:44;27.60;99.90
26479;DHT22;14163;-26.142;27.992;2024-01-10T16:18:13;27.50;99.90
26479;DHT22;14163;-26.142;27.992;2024-01-10T16:20:42;27.40;99.90
26479;DHT22;14163;-26.142;27.992;2024-01-10T16:23:11;27.40;99.90
26479;DHT22;14163;-26.142;27.992;2024-01-10T16:25:40;27.20;99.90
26479;DHT22;14163;-26.142;27.992;2024-01-10T16:28:08;27.10;99.90
26479;DHT22;14163;-26.142;27.992;2024-01-10T16:30:37;27.10;99.90
26479;DHT22;14163;-26.142;27.992;2024-01-10T16:33:08;27.20;99.90
26479;DHT22;14163;-26.142;27.992;2024-01-10T16:35:37;27.10;99.90
26479;DHT22;14163;-26.142;27.992;2024-01-10T16:38:06;27.10;99.90
26479;DHT22;14163;-26.142;27.992;2024-01-10T16:40:34;27.10;99.90
26479;DHT22;14163;-26.142;27.992;2024-01-10T16:43:04;27.10;99.90
26479;DHT22;14163;-26.142;27.992;2024-01-10T16:45:33;27.10;99.90
26479;DHT22;14163;-26.142;27.992;2024-01-10T16:48:02;27.00;99.90
26479;DHT22;14163;-26.142;27.992;2024-01-10T16:50:32;26.90;99.90
26479;DHT22;14163;-26.142;27.992;2024-01-10T16:53:01;26.80;99.90
26479;DHT22;14163;-26.142;27.992;2024-01-10T16:55:31;26.90;99.90
26479;DHT22;14163;-26.142;27.992;2024-01-10T16:58:00;26.90;99.90
26479;DHT22;14163;-26.142;27.992;2024-01-10T17:00:28;26.90;99.90
26479;DHT22;14163;-26.142;27.992;2024-01-10T17:02:57;26.90;99.90
26479;DHT22;14163;-26.142;27.992;2024-01-10T17:05:26;27.00;99.90
26479;DHT22;14163;-26.142;27.992;2024-01-10T17:07:57;27.00;99.90
26479;DHT22;14163;-26.142;27.992;2024-01-10T17:10:26;26.90;99.90
26479;DHT22;14163;-26.142;27.992;2024-01-10T17:12:55;26.60;99.90
26479;DHT22;14163;-26.142;27.992;2024-01-10T17:15:24;26.30;99.90
26479;DHT22;14163;-26.142;27.992;2024-01-10T17:17:53;26.00;99.90
26479;DHT22;14163;-26.142;27.992;2024-01-10T17:20:24;25.70;99.90
26479;DHT22;14163;-26.142;27.992;2024-01-10T17:22:53;25.50;99.90
26479;DHT22;14163;-26.142;27.992;2024-01-10T17:25:24;25.40;99.90